sensor_id;sensor_type;location;lat;lon;timestamp;P1;durP1;ratioP1;P2;durP2;ratioP2
7308;SDS011;3695;53.330;9.876;2023-02-15T00:01:48;268.50;;;44.43;;
7308;SDS011;3695;53.330;9.876;2023-02-15T00:04:15;267.83;;;46.20;;
7308;SDS011;3695;53.330;9.876;2023-02-15T00:06:43;218.73;;;43.67;;
7308;SDS011;3695;53.330;9.876;2023-02-15T00:09:11;271.97;;;47.70;;
7308;SDS011;3695;53.330;9.876;2023-02-15T00:11:38;214.60;;;41.47;;
7308;SDS011;3695;53.330;9.876;2023-02-15T00:14:15;327.37;;;49.03;;
7308;SDS011;3695;53.330;9.876;2023-02-15T00:16:43;213.13;;;41.37;;
7308;SDS011;3695;53.330;9.876;2023-02-15T00:19:10;238.30;;;42.20;;
7308;SDS011;3695;53.330;9.876;2023-02-15T00:21:38;203.17;;;42.87;;
7308;SDS011;3695;53.330;9.876;2023-02-15T00:24:06;316.30;;;45.73;;
7308;SDS011;3695;53.330;9.876;2023-02-15T00:26:35;317.70;;;44.83;;
7308;SDS011;3695;53.330;9.876;2023-02-15T00:29:04;192.43;;;44.00;;
7308;SDS011;3695;53.330;9.876;2023-02-15T00:31:31;248.00;;;42.57;;
7308;SDS011;3695;53.330;9.876;2023-02-15T00:34:00;248.37;;;40.70;;
7308;SDS011;3695;53.330;9.876;2023-02-15T00:36:27;264.83;;;41.97;;
7308;SDS011;3695;53.330;9.876;2023-02-15T00:38:53;368.60;;;49.40;;
7308;SDS011;3695;53.330;9.876;2023-02-15T00:41:20;287.10;;;47.30;;
7308;SDS011;3695;53.330;9.876;2023-02-15T00:43:48;181.67;;;41.20;;
7308;SDS011;3695;53.330;9.876;2023-02-15T00:46:14;280.13;;;45.40;;
7308;SDS011;3695;53.330;9.876;2023-02-15T00:48:40;196.37;;;40.13;;
7308;SDS011;3695;53.330;9.876;2023-02-15T00:51:07;307.57;;;46.87;;
7308;SDS011;3695;53.330;9.876;2023-02-15T00:53:33;156.30;;;38.07;;
7308;SDS011;3695;53.330;9.876;2023-02-15T00:56:00;135.17;;;36.87;;
7308;SDS011;3695;53.330;9.876;2023-02-15T00:58:26;185.77;;;41.67;;
7308;SDS011;3695;53.330;9.876;2023-02-15T01:00:54;184.17;;;41.20;;
7308;SDS011;3695;53.330;9.876;2023-02-15T01:03:21;344.00;;;48.00;;
7308;SDS011;3695;53.330;9.876;2023-02-15T01:05:48;182.97;;;39.10;;
7308;SDS011;3695;53.330;9.876;2023-02-15T01:08:14;161.17;;;38.90;;
7308;SDS011;3695;53.330;9.876;2023-02-15T01:10:41;264.57;;;44.13;;
7308;SDS011;3695;53.330;9.876;2023-02-15T01:13:09;147.80;;;36.83;;
7308;SDS011;3695;53.330;9.876;2023-02-15T01:15:36;275.73;;;45.90;;
7308;SDS011;3695;53.330;9.876;2023-02-15T01:18:03;168.60;;;38.23;;
7308;SDS011;3695;53.330;9.876;2023-02-15T01:20:33;227.27;;;43.87;;
7308;SDS011;3695;53.330;9.876;2023-02-15T01:23:01;141.03;;;35.73;;
7308;SDS011;3695;53.330;9.876;2023-02-15T01:25:28;316.40;;;45.00;;
7308;SDS011;3695;53.330;9.876;2023-02-15T01:27:54;180.00;;;36.20;;
7308;SDS011;3695;53.330;9.876;2023-02-15T01:30:21;136.80;;;34.70;;
7308;SDS011;3695;53.330;9.876;2023-02-15T01:32:47;193.07;;;38.83;;
7308;SDS011;3695;53.330;9.876;2023-02-15T01:35:15;179.23;;;39.57;;
7308;SDS011;3695;53.330;9.876;2023-02-15T01:37:41;355.73;;;49.10;;
7308;SDS011;3695;53.330;9.876;2023-02-15T01:40:11;189.80;;;37.57;;
7308;SDS011;3695;53.330;9.876;2023-02-15T01:42:39;301.30;;;44.33;;
7308;SDS011;3695;53.330;9.876;2023-02-15T01:45:12;287.47;;;46.27;;
7308;SDS011;3695;53.330;9.876;2023-02-15T01:47:46;287.57;;;38.23;;
7308;SDS011;3695;53.330;9.876;2023-02-15T01:50:18;348.40;;;46.23;;
7308;SDS011;3695;53.330;9.876;2023-02-15T01:52:48;335.30;;;47.87;;
7308;SDS011;3695;53.330;9.876;2023-02-15T01:55:18;261.00;;;40.80;;
7308;SDS011;3695;53.330;9.876;2023-02-15T01:57:46;312.60;;;46.20;;
7308;SDS011;3695;53.330;9.876;2023-02-15T02:00:13;220.70;;;41.77;;
7308;SDS011;3695;53.330;9.876;2023-02-15T02:02:41;167.63;;;35.13;;
7308;SDS011;3695;53.330;9.876;2023-02-15T02:05:10;171.03;;;37.47;;
7308;SDS011;3695;53.330;9.876;2023-02-15T02:07:39;166.17;;;35.27;;
7308;SDS011;3695;53.330;9.876;2023-02-15T02:10:09;125.13;;;33.90;;
7308;SDS011;3695;53.330;9.876;2023-02-15T02:12:37;166.70;;;37.07;;
7308;SDS011;3695;53.330;9.876;2023-02-15T02:15:07;159.83;;;37.27;;
7308;SDS011;3695;53.330;9.876;2023-02-15T02:17:36;187.13;;;35.43;;
7308;SDS011;3695;53.330;9.876;2023-02-15T02:23:20;227.77;;;37.37;;
7308;SDS011;3695;53.330;9.876;2023-02-15T02:26:16;218.57;;;42.33;;
7308;SDS011;3695;53.330;9.876;2023-02-15T02:35:20;215.43;;;37.73;;
7308;SDS011;3695;53.330;9.876;2023-02-15T02:37:55;166.90;;;36.27;;
7308;SDS011;3695;53.330;9.876;2023-02-15T02:40:30;296.47;;;39.70;;
7308;SDS011;3695;53.330;9.876;2023-02-15T02:43:08;213.77;;;38.33;;
7308;SDS011;3695;53.330;9.876;2023-02-15T02:45:43;144.57;;;33.23;;
7308;SDS011;3695;53.330;9.876;2023-02-15T02:48:15;123.73;;;31.33;;
7308;SDS011;3695;53.330;9.876;2023-02-15T02:50:48;128.27;;;31.27;;
7308;SDS011;3695;53.330;9.876;2023-02-15T02:53:14;147.20;;;31.63;;
7308;SDS011;3695;53.330;9.876;2023-02-15T02:55:42;157.57;;;32.87;;
7308;SDS011;3695;53.330;9.876;2023-02-15T02:58:14;199.97;;;35.97;;
7308;SDS011;3695;53.330;9.876;2023-02-15T03:00:46;127.97;;;32.83;;
7308;SDS011;3695;53.330;9.876;2023-02-15T03:03:18;102.43;;;31.27;;
7308;SDS011;3695;53.330;9.876;2023-02-15T03:05:50;182.77;;;35.27;;
7308;SDS011;3695;53.330;9.876;2023-02-15T03:08:21;88.80;;;29.17;;
7308;SDS011;3695;53.330;9.876;2023-02-15T03:10:53;185.60;;;31.93;;
7308;SDS011;3695;53.330;9.876;2023-02-15T03:13:21;115.03;;;31.97;;
7308;SDS011;3695;53.330;9.876;2023-02-15T03:15:49;126.53;;;31.00;;
7308;SDS011;3695;53.330;9.876;2023-02-15T03:18:35;191.70;;;34.20;;
7308;SDS011;3695;53.330;9.876;2023-02-15T03:21:05;94.63;;;27.93;;
7308;SDS011;3695;53.330;9.876;2023-02-15T03:23:47;166.17;;;31.67;;
7308;SDS011;3695;53.330;9.876;2023-02-15T03:26:16;148.43;;;30.83;;
7308;SDS011;3695;53.330;9.876;2023-02-15T03:28:45;152.77;;;32.03;;
7308;SDS011;3695;53.330;9.876;2023-02-15T03:31:13;135.63;;;32.93;;
7308;SDS011;3695;53.330;9.876;2023-02-15T03:33:44;263.23;;;39.73;;
7308;SDS011;3695;53.330;9.876;2023-02-15T03:36:19;185.17;;;32.10;;
7308;SDS011;3695;53.330;9.876;2023-02-15T03:38:49;255.03;;;34.90;;
7308;SDS011;3695;53.330;9.876;2023-02-15T03:41:24;209.27;;;31.17;;
7308;SDS011;3695;53.330;9.876;2023-02-15T03:43:54;141.53;;;29.27;;
7308;SDS011;3695;53.330;9.876;2023-02-15T03:46:24;167.73;;;28.87;;
7308;SDS011;3695;53.330;9.876;2023-02-15T03:48:54;120.57;;;27.23;;
7308;SDS011;3695;53.330;9.876;2023-02-15T03:51:25;214.07;;;31.80;;
7308;SDS011;3695;53.330;9.876;2023-02-15T03:54:02;153.75;;;29.17;;
7308;SDS011;3695;53.330;9.876;2023-02-15T03:56:30;111.37;;;32.37;;
7308;SDS011;3695;53.330;9.876;2023-02-15T03:58:57;179.70;;;37.17;;
7308;SDS011;3695;53.330;9.876;2023-02-15T04:01:43;130.53;;;32.20;;
7308;SDS011;3695;53.330;9.876;2023-02-15T04:04:25;102.93;;;26.93;;
7308;SDS011;3695;53.330;9.876;2023-02-15T04:06:58;185.03;;;32.40;;
7308;SDS011;3695;53.330;9.876;2023-02-15T04:09:24;166.70;;;30.70;;
7308;SDS011;3695;53.330;9.876;2023-02-15T04:12:08;157.73;;;30.50;;
7308;SDS011;3695;53.330;9.876;2023-02-15T04:14:35;187.50;;;31.93;;
7308;SDS011;3695;53.330;9.876;2023-02-15T04:17:19;200.23;;;31.47;;
7308;SDS011;3695;53.330;9.876;2023-02-15T04:19:45;211.70;;;32.87;;
7308;SDS011;3695;53.330;9.876;2023-02-15T04:22:31;158.93;;;32.03;;
7308;SDS011;3695;53.330;9.876;2023-02-15T04:25:15;198.80;;;33.37;;
7308;SDS011;3695;53.330;9.876;2023-02-15T04:27:42;85.67;;;26.43;;
7308;SDS011;3695;53.330;9.876;2023-02-15T04:30:10;118.50;;;27.90;;
7308;SDS011;3695;53.330;9.876;2023-02-15T04:32:38;251.25;;;62.40;;
7308;SDS011;3695;53.330;9.876;2023-02-15T04:35:06;238.33;;;46.17;;
7308;SDS011;3695;53.330;9.876;2023-02-15T04:37:35;196.00;;;33.90;;
7308;SDS011;3695;53.330;9.876;2023-02-15T04:40:02;213.17;;;35.97;;
7308;SDS011;3695;53.330;9.876;2023-02-15T04:42:28;134.50;;;28.83;;
7308;SDS011;3695;53.330;9.876;2023-02-15T04:44:55;144.73;;;29.20;;
7308;SDS011;3695;53.330;9.876;2023-02-15T04:47:21;177.30;;;32.07;;
7308;SDS011;3695;53.330;9.876;2023-02-15T04:49:48;111.83;;;28.50;;
7308;SDS011;3695;53.330;9.876;2023-02-15T04:52:15;90.10;;;26.77;;
7308;SDS011;3695;53.330;9.876;2023-02-15T04:54:43;102.00;;;29.40;;
7308;SDS011;3695;53.330;9.876;2023-02-15T04:57:10;143.43;;;29.47;;
7308;SDS011;3695;53.330;9.876;2023-02-15T04:59:36;105.60;;;27.17;;
7308;SDS011;3695;53.330;9.876;2023-02-15T05:02:02;95.33;;;25.50;;
7308;SDS011;3695;53.330;9.876;2023-02-15T05:04:29;110.70;;;26.83;;
7308;SDS011;3695;53.330;9.876;2023-02-15T05:06:56;77.70;;;24.70;;
7308;SDS011;3695;53.330;9.876;2023-02-15T05:09:22;65.90;;;25.13;;
7308;SDS011;3695;53.330;9.876;2023-02-15T05:11:50;70.17;;;24.63;;
7308;SDS011;3695;53.330;9.876;2023-02-15T05:14:16;89.77;;;25.30;;
7308;SDS011;3695;53.330;9.876;2023-02-15T05:16:43;90.87;;;24.70;;
7308;SDS011;3695;53.330;9.876;2023-02-15T05:19:09;97.53;;;24.03;;
7308;SDS011;3695;53.330;9.876;2023-02-15T05:21:36;82.17;;;22.93;;
7308;SDS011;3695;53.330;9.876;2023-02-15T05:24:02;110.23;;;25.67;;
7308;SDS011;3695;53.330;9.876;2023-02-15T05:26:51;74.83;;;22.43;;
7308;SDS011;3695;53.330;9.876;2023-02-15T05:29:34;65.47;;;23.00;;
7308;SDS011;3695;53.330;9.876;2023-02-15T05:32:01;129.10;;;25.00;;
7308;SDS011;3695;53.330;9.876;2023-02-15T05:34:29;157.13;;;25.97;;
7308;SDS011;3695;53.330;9.876;2023-02-15T05:36:55;97.20;;;24.50;;
7308;SDS011;3695;53.330;9.876;2023-02-15T05:39:22;95.13;;;23.60;;
7308;SDS011;3695;53.330;9.876;2023-02-15T05:41:48;173.00;;;25.90;;
7308;SDS011;3695;53.330;9.876;2023-02-15T05:44:16;84.83;;;22.20;;
7308;SDS011;3695;53.330;9.876;2023-02-15T05:46:42;151.70;;;25.87;;
7308;SDS011;3695;53.330;9.876;2023-02-15T05:49:09;143.33;;;24.13;;
7308;SDS011;3695;53.330;9.876;2023-02-15T05:51:35;138.20;;;24.20;;
7308;SDS011;3695;53.330;9.876;2023-02-15T05:54:01;105.70;;;25.20;;
7308;SDS011;3695;53.330;9.876;2023-02-15T05:56:28;115.63;;;23.97;;
7308;SDS011;3695;53.330;9.876;2023-02-15T05:58:54;110.27;;;22.90;;
7308;SDS011;3695;53.330;9.876;2023-02-15T06:01:22;120.33;;;21.83;;
7308;SDS011;3695;53.330;9.876;2023-02-15T06:03:48;57.73;;;21.30;;
7308;SDS011;3695;53.330;9.876;2023-02-15T06:06:15;53.30;;;19.97;;
7308;SDS011;3695;53.330;9.876;2023-02-15T06:08:42;71.00;;;21.30;;
7308;SDS011;3695;53.330;9.876;2023-02-15T06:11:09;119.87;;;22.47;;
7308;SDS011;3695;53.330;9.876;2023-02-15T06:13:35;105.37;;;22.30;;
7308;SDS011;3695;53.330;9.876;2023-02-15T06:16:02;105.43;;;22.13;;
7308;SDS011;3695;53.330;9.876;2023-02-15T06:18:30;95.03;;;21.53;;
7308;SDS011;3695;53.330;9.876;2023-02-15T06:20:57;130.60;;;20.87;;
7308;SDS011;3695;53.330;9.876;2023-02-15T06:23:23;147.93;;;23.83;;
7308;SDS011;3695;53.330;9.876;2023-02-15T06:25:50;165.33;;;23.87;;
7308;SDS011;3695;53.330;9.876;2023-02-15T06:28:16;184.23;;;25.40;;
7308;SDS011;3695;53.330;9.876;2023-02-15T06:30:43;152.17;;;23.83;;
7308;SDS011;3695;53.330;9.876;2023-02-15T06:33:09;138.43;;;22.77;;
7308;SDS011;3695;53.330;9.876;2023-02-15T06:35:37;108.43;;;21.67;;
7308;SDS011;3695;53.330;9.876;2023-02-15T06:38:03;126.73;;;22.03;;
7308;SDS011;3695;53.330;9.876;2023-02-15T06:40:30;97.73;;;19.70;;
7308;SDS011;3695;53.330;9.876;2023-02-15T06:42:56;70.63;;;19.17;;
7308;SDS011;3695;53.330;9.876;2023-02-15T06:45:23;63.30;;;19.93;;
7308;SDS011;3695;53.330;9.876;2023-02-15T06:47:49;85.77;;;23.30;;
7308;SDS011;3695;53.330;9.876;2023-02-15T06:50:15;75.97;;;21.67;;
7308;SDS011;3695;53.330;9.876;2023-02-15T06:52:43;110.93;;;21.97;;
7308;SDS011;3695;53.330;9.876;2023-02-15T06:55:10;103.70;;;22.30;;
7308;SDS011;3695;53.330;9.876;2023-02-15T06:57:36;83.03;;;19.13;;
7308;SDS011;3695;53.330;9.876;2023-02-15T07:00:03;82.27;;;22.47;;
7308;SDS011;3695;53.330;9.876;2023-02-15T07:02:31;85.53;;;22.17;;
7308;SDS011;3695;53.330;9.876;2023-02-15T07:04:57;63.53;;;21.57;;
7308;SDS011;3695;53.330;9.876;2023-02-15T07:07:24;66.70;;;21.70;;
7308;SDS011;3695;53.330;9.876;2023-02-15T07:09:52;69.50;;;20.53;;
7308;SDS011;3695;53.330;9.876;2023-02-15T07:12:18;49.77;;;21.20;;
7308;SDS011;3695;53.330;9.876;2023-02-15T07:15:02;37.57;;;20.10;;
7308;SDS011;3695;53.330;9.876;2023-02-15T07:17:31;42.07;;;20.33;;
7308;SDS011;3695;53.330;9.876;2023-02-15T07:19:57;44.47;;;19.40;;
7308;SDS011;3695;53.330;9.876;2023-02-15T07:22:23;51.20;;;19.43;;
7308;SDS011;3695;53.330;9.876;2023-02-15T07:24:51;69.30;;;20.70;;
7308;SDS011;3695;53.330;9.876;2023-02-15T07:27:19;41.80;;;18.57;;
7308;SDS011;3695;53.330;9.876;2023-02-15T07:29:46;59.27;;;20.20;;
7308;SDS011;3695;53.330;9.876;2023-02-15T07:32:12;57.77;;;20.03;;
7308;SDS011;3695;53.330;9.876;2023-02-15T07:34:39;50.70;;;20.57;;
7308;SDS011;3695;53.330;9.876;2023-02-15T07:37:06;57.83;;;19.20;;
7308;SDS011;3695;53.330;9.876;2023-02-15T07:39:32;59.20;;;19.90;;
7308;SDS011;3695;53.330;9.876;2023-02-15T07:42:00;35.23;;;18.47;;
7308;SDS011;3695;53.330;9.876;2023-02-15T07:44:27;35.83;;;17.43;;
7308;SDS011;3695;53.330;9.876;2023-02-15T07:46:53;34.57;;;18.43;;
7308;SDS011;3695;53.330;9.876;2023-02-15T07:49:20;42.20;;;20.00;;
7308;SDS011;3695;53.330;9.876;2023-02-15T07:51:46;36.07;;;21.00;;
7308;SDS011;3695;53.330;9.876;2023-02-15T07:54:12;34.80;;;20.00;;
7308;SDS011;3695;53.330;9.876;2023-02-15T07:56:39;31.07;;;17.07;;
7308;SDS011;3695;53.330;9.876;2023-02-15T07:59:07;28.70;;;17.77;;
7308;SDS011;3695;53.330;9.876;2023-02-15T08:01:34;34.27;;;18.07;;
7308;SDS011;3695;53.330;9.876;2023-02-15T08:04:03;35.90;;;17.07;;
7308;SDS011;3695;53.330;9.876;2023-02-15T08:06:32;31.30;;;17.10;;
7308;SDS011;3695;53.330;9.876;2023-02-15T08:09:00;31.13;;;15.27;;
7308;SDS011;3695;53.330;9.876;2023-02-15T08:11:29;28.03;;;16.50;;
7308;SDS011;3695;53.330;9.876;2023-02-15T08:14:01;28.67;;;15.13;;
7308;SDS011;3695;53.330;9.876;2023-02-15T08:16:31;28.37;;;16.73;;
7308;SDS011;3695;53.330;9.876;2023-02-15T08:19:01;28.67;;;16.37;;
7308;SDS011;3695;53.330;9.876;2023-02-15T08:21:30;35.73;;;16.07;;
7308;SDS011;3695;53.330;9.876;2023-02-15T08:23:57;33.70;;;16.27;;
7308;SDS011;3695;53.330;9.876;2023-02-15T08:26:24;28.77;;;15.93;;
7308;SDS011;3695;53.330;9.876;2023-02-15T08:28:52;29.97;;;15.80;;
7308;SDS011;3695;53.330;9.876;2023-02-15T08:31:18;26.10;;;14.97;;
7308;SDS011;3695;53.330;9.876;2023-02-15T08:33:47;29.50;;;15.97;;
7308;SDS011;3695;53.330;9.876;2023-02-15T08:36:16;24.97;;;15.13;;
7308;SDS011;3695;53.330;9.876;2023-02-15T08:38:44;25.73;;;16.63;;
7308;SDS011;3695;53.330;9.876;2023-02-15T08:41:12;27.03;;;17.10;;
7308;SDS011;3695;53.330;9.876;2023-02-15T08:43:40;37.27;;;18.63;;
7308;SDS011;3695;53.330;9.876;2023-02-15T08:46:07;26.97;;;16.23;;
7308;SDS011;3695;53.330;9.876;2023-02-15T08:48:34;27.87;;;17.10;;
7308;SDS011;3695;53.330;9.876;2023-02-15T08:51:06;28.63;;;16.93;;
7308;SDS011;3695;53.330;9.876;2023-02-15T08:53:35;26.20;;;15.50;;
7308;SDS011;3695;53.330;9.876;2023-02-15T08:56:02;25.00;;;16.00;;
7308;SDS011;3695;53.330;9.876;2023-02-15T08:58:29;27.80;;;16.10;;
7308;SDS011;3695;53.330;9.876;2023-02-15T09:00:56;28.13;;;15.93;;
7308;SDS011;3695;53.330;9.876;2023-02-15T09:03:23;27.40;;;16.33;;
7308;SDS011;3695;53.330;9.876;2023-02-15T09:05:49;28.03;;;16.50;;
7308;SDS011;3695;53.330;9.876;2023-02-15T09:08:17;25.90;;;15.00;;
7308;SDS011;3695;53.330;9.876;2023-02-15T09:10:43;26.77;;;16.37;;
7308;SDS011;3695;53.330;9.876;2023-02-15T09:13:10;26.10;;;16.70;;
7308;SDS011;3695;53.330;9.876;2023-02-15T09:15:36;28.70;;;17.40;;
7308;SDS011;3695;53.330;9.876;2023-02-15T09:18:02;27.80;;;16.77;;
7308;SDS011;3695;53.330;9.876;2023-02-15T09:20:31;25.23;;;16.47;;
7308;SDS011;3695;53.330;9.876;2023-02-15T09:22:57;26.53;;;16.43;;
7308;SDS011;3695;53.330;9.876;2023-02-15T09:25:26;27.43;;;16.37;;
7308;SDS011;3695;53.330;9.876;2023-02-15T09:27:53;30.87;;;18.27;;
7308;SDS011;3695;53.330;9.876;2023-02-15T09:30:19;28.87;;;18.97;;
7308;SDS011;3695;53.330;9.876;2023-02-15T09:32:46;24.83;;;15.97;;
7308;SDS011;3695;53.330;9.876;2023-02-15T09:35:13;28.80;;;17.87;;
7308;SDS011;3695;53.330;9.876;2023-02-15T09:37:39;27.50;;;17.17;;
7308;SDS011;3695;53.330;9.876;2023-02-15T09:40:06;26.57;;;17.07;;
7308;SDS011;3695;53.330;9.876;2023-02-15T09:42:43;28.60;;;18.47;;
7308;SDS011;3695;53.330;9.876;2023-02-15T09:45:26;27.27;;;16.87;;
7308;SDS011;3695;53.330;9.876;2023-02-15T09:48:14;27.80;;;17.00;;
7308;SDS011;3695;53.330;9.876;2023-02-15T09:50:58;28.50;;;17.20;;
7308;SDS011;3695;53.330;9.876;2023-02-15T09:53:38;31.27;;;17.90;;
7308;SDS011;3695;53.330;9.876;2023-02-15T09:56:19;27.30;;;17.53;;
7308;SDS011;3695;53.330;9.876;2023-02-15T09:58:56;30.73;;;18.87;;
7308;SDS011;3695;53.330;9.876;2023-02-15T10:01:33;33.20;;;18.53;;
7308;SDS011;3695;53.330;9.876;2023-02-15T10:04:13;31.27;;;18.83;;
7308;SDS011;3695;53.330;9.876;2023-02-15T10:06:48;27.23;;;17.70;;
7308;SDS011;3695;53.330;9.876;2023-02-15T10:09:35;29.77;;;17.93;;
7308;SDS011;3695;53.330;9.876;2023-02-15T10:12:14;31.33;;;18.93;;
7308;SDS011;3695;53.330;9.876;2023-02-15T10:15:02;28.60;;;17.90;;
7308;SDS011;3695;53.330;9.876;2023-02-15T10:17:43;28.80;;;18.87;;
7308;SDS011;3695;53.330;9.876;2023-02-15T10:20:23;29.40;;;18.47;;
7308;SDS011;3695;53.330;9.876;2023-02-15T10:23:13;28.57;;;19.00;;
7308;SDS011;3695;53.330;9.876;2023-02-15T10:25:54;33.03;;;19.30;;
7308;SDS011;3695;53.330;9.876;2023-02-15T10:28:28;25.20;;;17.70;;
7308;SDS011;3695;53.330;9.876;2023-02-15T10:31:07;31.07;;;20.57;;
7308;SDS011;3695;53.330;9.876;2023-02-15T10:33:43;29.57;;;19.47;;
7308;SDS011;3695;53.330;9.876;2023-02-15T10:36:14;31.47;;;19.00;;
7308;SDS011;3695;53.330;9.876;2023-02-15T10:38:53;31.23;;;19.03;;
7308;SDS011;3695;53.330;9.876;2023-02-15T10:41:30;31.60;;;19.53;;
7308;SDS011;3695;53.330;9.876;2023-02-15T10:44:20;31.73;;;20.33;;
7308;SDS011;3695;53.330;9.876;2023-02-15T10:47:04;30.20;;;19.23;;
7308;SDS011;3695;53.330;9.876;2023-02-15T10:49:50;29.80;;;19.20;;
7308;SDS011;3695;53.330;9.876;2023-02-15T10:52:32;33.30;;;19.83;;
7308;SDS011;3695;53.330;9.876;2023-02-15T10:55:09;30.73;;;19.20;;
7308;SDS011;3695;53.330;9.876;2023-02-15T10:57:44;32.57;;;19.77;;
7308;SDS011;3695;53.330;9.876;2023-02-15T11:00:22;29.43;;;19.77;;
7308;SDS011;3695;53.330;9.876;2023-02-15T11:03:02;29.63;;;19.20;;
7308;SDS011;3695;53.330;9.876;2023-02-15T11:05:45;32.13;;;19.27;;
7308;SDS011;3695;53.330;9.876;2023-02-15T11:08:19;29.73;;;18.27;;
7308;SDS011;3695;53.330;9.876;2023-02-15T11:10:49;27.37;;;17.83;;
7308;SDS011;3695;53.330;9.876;2023-02-15T11:13:19;28.67;;;18.00;;
7308;SDS011;3695;53.330;9.876;2023-02-15T11:15:50;26.27;;;17.17;;
7308;SDS011;3695;53.330;9.876;2023-02-15T11:18:23;28.87;;;18.10;;
7308;SDS011;3695;53.330;9.876;2023-02-15T11:20:53;29.43;;;19.13;;
7308;SDS011;3695;53.330;9.876;2023-02-15T11:23:22;28.83;;;17.43;;
7308;SDS011;3695;53.330;9.876;2023-02-15T11:25:52;28.37;;;18.33;;
7308;SDS011;3695;53.330;9.876;2023-02-15T11:28:24;27.40;;;18.40;;
7308;SDS011;3695;53.330;9.876;2023-02-15T11:30:56;26.07;;;17.40;;
7308;SDS011;3695;53.330;9.876;2023-02-15T11:33:29;24.90;;;17.00;;
7308;SDS011;3695;53.330;9.876;2023-02-15T11:36:00;24.43;;;17.27;;
7308;SDS011;3695;53.330;9.876;2023-02-15T11:38:32;24.33;;;16.80;;
7308;SDS011;3695;53.330;9.876;2023-02-15T11:41:09;26.47;;;17.90;;
7308;SDS011;3695;53.330;9.876;2023-02-15T11:43:37;29.47;;;17.60;;
7308;SDS011;3695;53.330;9.876;2023-02-15T11:46:10;25.57;;;17.57;;
7308;SDS011;3695;53.330;9.876;2023-02-15T11:48:41;31.97;;;18.40;;
7308;SDS011;3695;53.330;9.876;2023-02-15T11:51:08;25.77;;;18.03;;
7308;SDS011;3695;53.330;9.876;2023-02-15T11:53:38;27.77;;;18.33;;
7308;SDS011;3695;53.330;9.876;2023-02-15T11:56:10;30.83;;;19.37;;
7308;SDS011;3695;53.330;9.876;2023-02-15T11:58:40;31.93;;;18.30;;
7308;SDS011;3695;53.330;9.876;2023-02-15T12:01:11;28.40;;;17.70;;
7308;SDS011;3695;53.330;9.876;2023-02-15T12:03:47;26.33;;;17.77;;
7308;SDS011;3695;53.330;9.876;2023-02-15T12:06:17;25.83;;;17.37;;
7308;SDS011;3695;53.330;9.876;2023-02-15T12:08:51;30.13;;;19.23;;
7308;SDS011;3695;53.330;9.876;2023-02-15T12:11:23;29.33;;;18.07;;
7308;SDS011;3695;53.330;9.876;2023-02-15T12:13:57;31.87;;;19.40;;
7308;SDS011;3695;53.330;9.876;2023-02-15T12:16:25;30.17;;;18.77;;
7308;SDS011;3695;53.330;9.876;2023-02-15T12:18:55;31.47;;;19.40;;
7308;SDS011;3695;53.330;9.876;2023-02-15T12:21:24;30.27;;;19.80;;
7308;SDS011;3695;53.330;9.876;2023-02-15T12:23:54;29.77;;;18.77;;
7308;SDS011;3695;53.330;9.876;2023-02-15T12:26:23;29.47;;;18.93;;
7308;SDS011;3695;53.330;9.876;2023-02-15T12:28:51;28.87;;;18.13;;
7308;SDS011;3695;53.330;9.876;2023-02-15T12:31:20;30.40;;;18.93;;
7308;SDS011;3695;53.330;9.876;2023-02-15T12:33:50;29.83;;;19.90;;
7308;SDS011;3695;53.330;9.876;2023-02-15T12:36:21;32.40;;;21.00;;
7308;SDS011;3695;53.330;9.876;2023-02-15T12:39:03;33.27;;;19.30;;
7308;SDS011;3695;53.330;9.876;2023-02-15T12:41:32;29.83;;;19.37;;
7308;SDS011;3695;53.330;9.876;2023-02-15T12:44:03;31.50;;;19.87;;
7308;SDS011;3695;53.330;9.876;2023-02-15T12:46:31;36.03;;;20.30;;
7308;SDS011;3695;53.330;9.876;2023-02-15T12:49:05;31.87;;;20.27;;
7308;SDS011;3695;53.330;9.876;2023-02-15T12:51:48;39.30;;;23.73;;
7308;SDS011;3695;53.330;9.876;2023-02-15T12:54:26;38.40;;;22.57;;
7308;SDS011;3695;53.330;9.876;2023-02-15T12:56:56;39.43;;;22.37;;
7308;SDS011;3695;53.330;9.876;2023-02-15T12:59:23;40.20;;;23.83;;
7308;SDS011;3695;53.330;9.876;2023-02-15T13:01:50;39.90;;;23.77;;
7308;SDS011;3695;53.330;9.876;2023-02-15T13:04:21;39.53;;;22.77;;
7308;SDS011;3695;53.330;9.876;2023-02-15T13:06:52;34.17;;;21.87;;
7308;SDS011;3695;53.330;9.876;2023-02-15T13:09:22;38.20;;;21.67;;
7308;SDS011;3695;53.330;9.876;2023-02-15T13:11:54;34.77;;;21.93;;
7308;SDS011;3695;53.330;9.876;2023-02-15T13:14:24;34.63;;;22.37;;
7308;SDS011;3695;53.330;9.876;2023-02-15T13:16:56;40.00;;;24.73;;
7308;SDS011;3695;53.330;9.876;2023-02-15T13:19:28;40.83;;;25.17;;
7308;SDS011;3695;53.330;9.876;2023-02-15T13:22:01;40.30;;;24.17;;
7308;SDS011;3695;53.330;9.876;2023-02-15T13:24:29;38.47;;;23.10;;
7308;SDS011;3695;53.330;9.876;2023-02-15T13:27:00;43.20;;;23.67;;
7308;SDS011;3695;53.330;9.876;2023-02-15T13:29:28;36.57;;;23.47;;
7308;SDS011;3695;53.330;9.876;2023-02-15T13:31:57;37.53;;;22.07;;
7308;SDS011;3695;53.330;9.876;2023-02-15T13:34:28;39.50;;;22.43;;
7308;SDS011;3695;53.330;9.876;2023-02-15T13:36:57;34.63;;;22.13;;
7308;SDS011;3695;53.330;9.876;2023-02-15T13:39:33;37.17;;;22.10;;
7308;SDS011;3695;53.330;9.876;2023-02-15T13:42:05;36.00;;;21.43;;
7308;SDS011;3695;53.330;9.876;2023-02-15T13:45:00;38.40;;;21.30;;
7308;SDS011;3695;53.330;9.876;2023-02-15T13:47:40;37.30;;;22.37;;
7308;SDS011;3695;53.330;9.876;2023-02-15T13:50:19;37.67;;;22.03;;
7308;SDS011;3695;53.330;9.876;2023-02-15T13:53:00;36.60;;;20.80;;
7308;SDS011;3695;53.330;9.876;2023-02-15T13:55:37;32.20;;;19.97;;
7308;SDS011;3695;53.330;9.876;2023-02-15T13:58:14;36.90;;;21.73;;
7308;SDS011;3695;53.330;9.876;2023-02-15T14:00:53;40.27;;;22.50;;
7308;SDS011;3695;53.330;9.876;2023-02-15T14:03:40;35.80;;;20.73;;
7308;SDS011;3695;53.330;9.876;2023-02-15T14:06:28;38.67;;;22.23;;
7308;SDS011;3695;53.330;9.876;2023-02-15T14:09:13;36.10;;;21.43;;
7308;SDS011;3695;53.330;9.876;2023-02-15T14:11:50;35.87;;;20.70;;
7308;SDS011;3695;53.330;9.876;2023-02-15T14:14:31;39.03;;;21.73;;
7308;SDS011;3695;53.330;9.876;2023-02-15T14:17:09;36.37;;;21.63;;
7308;SDS011;3695;53.330;9.876;2023-02-15T14:19:46;42.03;;;24.23;;
7308;SDS011;3695;53.330;9.876;2023-02-15T14:22:18;42.60;;;22.17;;
7308;SDS011;3695;53.330;9.876;2023-02-15T14:24:56;38.30;;;22.77;;
7308;SDS011;3695;53.330;9.876;2023-02-15T14:27:48;38.80;;;22.50;;
7308;SDS011;3695;53.330;9.876;2023-02-15T14:30:22;38.60;;;22.53;;
7308;SDS011;3695;53.330;9.876;2023-02-15T14:32:53;36.57;;;21.97;;
7308;SDS011;3695;53.330;9.876;2023-02-15T14:35:23;34.60;;;21.63;;
7308;SDS011;3695;53.330;9.876;2023-02-15T14:37:52;38.93;;;21.87;;
7308;SDS011;3695;53.330;9.876;2023-02-15T14:40:29;36.67;;;20.97;;
7308;SDS011;3695;53.330;9.876;2023-02-15T14:43:20;36.43;;;21.17;;
7308;SDS011;3695;53.330;9.876;2023-02-15T14:45:58;32.20;;;19.57;;
7308;SDS011;3695;53.330;9.876;2023-02-15T14:48:30;33.17;;;19.03;;
7308;SDS011;3695;53.330;9.876;2023-02-15T14:50:58;34.17;;;18.87;;
7308;SDS011;3695;53.330;9.876;2023-02-15T14:53:35;33.63;;;19.93;;
7308;SDS011;3695;53.330;9.876;2023-02-15T14:56:23;29.03;;;19.03;;
7308;SDS011;3695;53.330;9.876;2023-02-15T14:58:55;27.40;;;16.70;;
7308;SDS011;3695;53.330;9.876;2023-02-15T15:01:25;28.43;;;17.33;;
7308;SDS011;3695;53.330;9.876;2023-02-15T15:03:54;25.97;;;17.30;;
7308;SDS011;3695;53.330;9.876;2023-02-15T15:06:24;22.00;;;15.90;;
7308;SDS011;3695;53.330;9.876;2023-02-15T15:08:53;25.87;;;16.13;;
7308;SDS011;3695;53.330;9.876;2023-02-15T15:11:45;24.63;;;16.53;;
7308;SDS011;3695;53.330;9.876;2023-02-15T15:14:36;25.17;;;16.47;;
7308;SDS011;3695;53.330;9.876;2023-02-15T15:17:05;27.00;;;16.87;;